臺東航空站 - ATIS

METAR RCFN 120300Z 03006KT 340V090 9999 FEW025 27/17 Q1019 NOSIG RMK A3009(K)=

站台狀態:Offline
最後更新:2019-11-12 11:00:01